createdAt,value
2018-07-11T00:00:42.214Z,-83.00
2018-07-11T00:01:42.988Z,-81.00
2018-07-11T00:02:43.761Z,-83.00
2018-07-11T00:03:44.532Z,-83.00
2018-07-11T00:04:45.305Z,-82.00
2018-07-11T00:05:46.103Z,-84.00
2018-07-11T00:06:46.878Z,-83.00
2018-07-11T00:07:47.650Z,-84.00
2018-07-11T00:08:48.419Z,-83.00
2018-07-11T00:09:49.193Z,-83.00
2018-07-11T00:10:49.997Z,-83.00
2018-07-11T00:11:50.768Z,-82.00
2018-07-11T00:12:51.538Z,-82.00
2018-07-11T00:13:52.312Z,-82.00
2018-07-11T00:14:53.151Z,-82.00
2018-07-11T00:15:53.001Z,-84.00
2018-07-11T00:16:54.065Z,-83.00
2018-07-11T00:17:55.272Z,-83.00
2018-07-11T00:18:54.463Z,-84.00
2018-07-11T00:19:54.669Z,-82.00
2018-07-11T00:32:12.019Z,-85.00
2018-07-11T00:33:13.789Z,-82.00
2018-07-11T00:34:14.568Z,-82.00
2018-07-11T00:35:15.334Z,-81.00
2018-07-11T00:36:16.129Z,-82.00
2018-07-11T00:37:17.015Z,-83.00
2018-07-11T00:38:16.677Z,-83.00
2018-07-11T00:39:18.446Z,-84.00
2018-07-11T00:40:19.219Z,-83.00
2018-07-11T00:41:20.014Z,-84.00
2018-07-11T00:42:20.781Z,-84.00
2018-07-11T00:43:21.556Z,-86.00
2018-07-11T00:44:22.326Z,-83.00
2018-07-11T00:45:23.097Z,-85.00
2018-07-11T00:46:23.893Z,-83.00
2018-07-11T00:47:24.665Z,-83.00
2018-07-11T00:48:25.438Z,-83.00
2018-07-11T00:49:26.209Z,-83.00
2018-07-11T00:50:25.978Z,-82.00
2018-07-11T00:51:27.779Z,-83.00
2018-07-11T00:52:28.550Z,-83.00
2018-07-11T00:53:29.322Z,-84.00
2018-07-11T00:54:30.094Z,-82.00
2018-07-11T00:55:30.867Z,-82.00
2018-07-11T00:56:31.664Z,-83.00
2018-07-11T00:57:32.433Z,-84.00
2018-07-11T00:58:33.208Z,-82.00
2018-07-11T00:59:33.975Z,-83.00
2018-07-11T01:00:34.747Z,-83.00
2018-07-11T01:01:35.542Z,-83.00
2018-07-11T01:02:36.316Z,-83.00
2018-07-11T01:03:37.089Z,-83.00
2018-07-11T01:04:37.861Z,-83.00
2018-07-11T01:05:38.632Z,-83.00
2018-07-11T01:06:39.429Z,-84.00
2018-07-11T01:07:40.201Z,-82.00
2018-07-11T01:08:40.970Z,-83.00
2018-07-11T01:09:41.744Z,-84.00
2018-07-11T01:10:42.516Z,-84.00
2018-07-11T01:11:43.311Z,-81.00
2018-07-11T01:12:44.082Z,-84.00
2018-07-11T01:13:44.854Z,-82.00
2018-07-11T01:14:45.625Z,-85.00
2018-07-11T01:15:46.415Z,-83.00
2018-07-11T01:16:47.210Z,-84.00
2018-07-11T01:17:47.987Z,-83.00
2018-07-11T01:18:48.792Z,-81.00
2018-07-11T01:19:49.569Z,-82.00
2018-07-11T01:20:50.392Z,-81.00
2018-07-11T01:21:50.172Z,-81.00
2018-07-11T01:22:51.942Z,-81.00
2018-07-11T01:23:52.715Z,-82.00
2018-07-11T01:24:53.489Z,-82.00
2018-07-11T01:25:54.259Z,-82.00
2018-07-11T01:26:55.054Z,-82.00
2018-07-11T01:27:55.824Z,-82.00
2018-07-11T01:28:56.602Z,-81.00
2018-07-11T01:29:57.370Z,-83.00
2018-07-11T01:30:58.145Z,-82.00
2018-07-11T01:31:58.945Z,-82.00
2018-07-11T01:32:59.718Z,-81.00
2018-07-11T01:34:00.487Z,-82.00
2018-07-11T01:35:01.262Z,-83.00
2018-07-11T01:36:02.029Z,-83.00
2018-07-11T01:37:02.832Z,-81.00
2018-07-11T01:38:03.602Z,-82.00
2018-07-11T01:39:04.376Z,-82.00
2018-07-11T01:40:05.146Z,-82.00
2018-07-11T01:41:05.922Z,-82.00
2018-07-11T01:42:06.721Z,-82.00
2018-07-11T01:43:07.500Z,-82.00
2018-07-11T01:44:08.267Z,-80.00
2018-07-11T01:45:09.047Z,-82.00
2018-07-11T01:46:09.814Z,-81.00
2018-07-11T01:47:10.615Z,-80.00
2018-07-11T01:48:11.387Z,-84.00
2018-07-11T01:49:12.168Z,-85.00
2018-07-11T01:50:11.931Z,-86.00
2018-07-11T01:51:13.705Z,-83.00
2018-07-11T01:52:14.505Z,-84.00
2018-07-11T01:53:15.274Z,-83.00
2018-07-11T01:54:16.054Z,-85.00
2018-07-11T01:55:16.819Z,-86.00
2018-07-11T01:56:17.591Z,-81.00
2018-07-11T01:57:18.391Z,-83.00
2018-07-11T01:58:19.163Z,-85.00
2018-07-11T01:59:19.935Z,-84.00
2018-07-11T02:00:20.706Z,-84.00
2018-07-11T02:01:21.478Z,-84.00
2018-07-11T02:02:22.276Z,-84.00
2018-07-11T02:03:23.048Z,-81.00
2018-07-11T02:04:23.825Z,-84.00
2018-07-11T02:05:24.640Z,-82.00
2018-07-11T02:06:24.368Z,-83.00
2018-07-11T02:07:26.169Z,-85.00
2018-07-11T02:08:26.945Z,-84.00
2018-07-11T02:09:27.717Z,-84.00
2018-07-11T02:10:28.491Z,-84.00
2018-07-11T02:11:29.257Z,-86.00
2018-07-11T02:12:30.060Z,-85.00
2018-07-11T02:13:30.830Z,-85.00
2018-07-11T02:14:31.603Z,-84.00
2018-07-11T02:15:32.378Z,-85.00
2018-07-11T02:16:33.153Z,-84.00
2018-07-11T02:17:33.953Z,-84.00
2018-07-11T02:18:34.722Z,-84.00
2018-07-11T02:19:35.500Z,-85.00
2018-07-11T02:20:36.267Z,-83.00
2018-07-11T02:21:37.047Z,-84.00
2018-07-11T02:22:38.224Z,-83.00
2018-07-11T02:33:06.318Z,-82.00
2018-07-11T02:34:07.089Z,-81.00
2018-07-11T02:35:07.861Z,-81.00
2018-07-11T02:36:08.633Z,-82.00
2018-07-11T02:37:09.402Z,-82.00
2018-07-11T02:38:10.202Z,-83.00
2018-07-11T02:39:10.979Z,-83.00
2018-07-11T02:40:11.750Z,-84.00
2018-07-11T02:41:12.525Z,-82.00
2018-07-11T02:42:13.300Z,-82.00
2018-07-11T02:43:14.096Z,-83.00
2018-07-11T02:44:14.876Z,-83.00
2018-07-11T02:45:15.645Z,-82.00
2018-07-11T02:46:16.413Z,-84.00
2018-07-11T02:47:17.185Z,-83.00
2018-07-11T02:48:17.986Z,-82.00
2018-07-11T02:49:18.762Z,-83.00
2018-07-11T02:50:19.531Z,-82.00
2018-07-11T02:51:20.304Z,-82.00
2018-07-11T02:52:21.074Z,-83.00
2018-07-11T02:53:21.876Z,-81.00
2018-07-11T02:54:22.652Z,-82.00
2018-07-11T02:55:23.419Z,-83.00
2018-07-11T02:56:24.192Z,-83.00
2018-07-11T02:57:24.963Z,-83.00
2018-07-11T02:58:25.760Z,-84.00
2018-07-11T02:59:26.544Z,-82.00
2018-07-11T03:00:27.304Z,-81.00
2018-07-11T03:01:28.077Z,-82.00
2018-07-11T03:02:28.851Z,-82.00
2018-07-11T03:03:29.645Z,-84.00
2018-07-11T03:04:30.423Z,-81.00
2018-07-11T03:05:31.190Z,-82.00
2018-07-11T03:06:31.965Z,-83.00
2018-07-11T03:07:32.733Z,-82.00
2018-07-11T03:08:32.533Z,-83.00
2018-07-11T03:09:34.302Z,-82.00
2018-07-11T03:10:35.076Z,-83.00
2018-07-11T03:11:35.849Z,-83.00
2018-07-11T03:12:36.627Z,-83.00
2018-07-11T03:13:37.432Z,-83.00
2018-07-11T03:14:38.196Z,-83.00
2018-07-11T03:15:38.969Z,-82.00
2018-07-11T03:16:39.739Z,-84.00
2018-07-11T03:17:40.516Z,-83.00
2018-07-11T03:18:41.315Z,-84.00
2018-07-11T03:19:42.087Z,-82.00
2018-07-11T03:20:42.861Z,-82.00
2018-07-11T03:21:43.631Z,-81.00
2018-07-11T03:22:44.406Z,-83.00
2018-07-11T03:23:45.205Z,-82.00
2018-07-11T03:24:45.979Z,-81.00
2018-07-11T03:25:46.752Z,-83.00
2018-07-11T03:26:47.526Z,-84.00
2018-07-11T03:27:48.300Z,-83.00
2018-07-11T03:28:49.093Z,-83.00
2018-07-11T03:29:49.867Z,-81.00
2018-07-11T03:30:50.641Z,-81.00
2018-07-11T03:31:51.424Z,-81.00
2018-07-11T03:32:52.186Z,-82.00
2018-07-11T03:33:52.985Z,-82.00
2018-07-11T03:34:53.760Z,-82.00
2018-07-11T03:35:54.539Z,-82.00
2018-07-11T03:36:55.309Z,-84.00
2018-07-11T03:37:56.087Z,-82.00
2018-07-11T03:38:56.884Z,-81.00
2018-07-11T03:39:57.657Z,-82.00
2018-07-11T03:40:58.431Z,-82.00
2018-07-11T03:41:59.211Z,-84.00
2018-07-11T03:42:59.987Z,-82.00
2018-07-11T03:44:00.785Z,-82.00
2018-07-11T03:45:01.612Z,-82.00
2018-07-11T03:46:01.329Z,-82.00
2018-07-11T03:47:03.104Z,-83.00
2018-07-11T03:48:03.879Z,-81.00
2018-07-11T03:49:04.677Z,-82.00
2018-07-11T03:50:05.504Z,-83.00
2018-07-11T03:51:05.229Z,-82.00
2018-07-11T03:52:06.999Z,-81.00
2018-07-11T03:53:07.769Z,-82.00
2018-07-11T03:54:08.564Z,-83.00
2018-07-11T03:55:09.343Z,-83.00
2018-07-11T03:56:10.118Z,-83.00
2018-07-11T03:57:10.888Z,-83.00
2018-07-11T03:58:11.668Z,-82.00
2018-07-11T03:59:12.463Z,-85.00
2018-07-11T04:00:13.234Z,-81.00
2018-07-11T04:01:14.008Z,-82.00
2018-07-11T04:02:14.783Z,-81.00
2018-07-11T04:03:15.566Z,-81.00
2018-07-11T04:04:16.361Z,-83.00
2018-07-11T04:05:17.140Z,-82.00
2018-07-11T04:06:17.909Z,-84.00
2018-07-11T04:07:18.686Z,-85.00
2018-07-11T04:08:19.459Z,-82.00
2018-07-11T04:09:20.259Z,-82.00
2018-07-11T04:10:21.032Z,-84.00
2018-07-11T04:11:21.812Z,-82.00
2018-07-11T04:12:22.583Z,-81.00
2018-07-11T04:13:23.352Z,-81.00
2018-07-11T04:14:24.151Z,-80.00
2018-07-11T04:15:24.920Z,-81.00
2018-07-11T04:16:25.692Z,-82.00
2018-07-11T04:17:26.466Z,-85.00
2018-07-11T04:18:27.241Z,-84.00
2018-07-11T04:19:28.036Z,-84.00
2018-07-11T04:20:27.817Z,-82.00
2018-07-11T04:21:29.592Z,-83.00
2018-07-11T04:22:30.365Z,-83.00
2018-07-11T04:23:31.515Z,-83.00
2018-07-11T04:24:31.733Z,-84.00
2018-07-11T04:25:30.927Z,-83.00
2018-07-11T04:28:24.544Z,-82.00
2018-07-11T04:29:26.315Z,-84.00
2018-07-11T04:30:27.112Z,-84.00
2018-07-11T04:31:27.883Z,-84.00
2018-07-11T04:32:28.827Z,-83.00
2018-07-11T04:33:28.791Z,-81.00
2018-07-11T04:34:29.414Z,-85.00
2018-07-11T04:35:31.191Z,-83.00
2018-07-11T04:36:31.963Z,-85.00
2018-07-11T04:37:32.737Z,-84.00
2018-07-11T04:38:33.508Z,-83.00
2018-07-11T04:39:34.279Z,-84.00
2018-07-11T04:40:35.082Z,-84.00
2018-07-11T04:41:35.851Z,-83.00
2018-07-11T04:42:36.701Z,-83.00
2018-07-11T04:43:36.397Z,-83.00
2018-07-11T04:44:38.173Z,-84.00
2018-07-11T04:45:38.970Z,-83.00
2018-07-11T04:46:39.747Z,-86.00
2018-07-11T04:47:40.522Z,-84.00
2018-07-11T04:48:41.295Z,-83.00
2018-07-11T04:49:42.065Z,-84.00
2018-07-11T04:50:42.866Z,-84.00
2018-07-11T04:51:43.639Z,-84.00
2018-07-11T04:52:44.473Z,-84.00
2018-07-11T04:53:44.184Z,-84.00
2018-07-11T04:54:45.955Z,-83.00
2018-07-11T04:55:46.752Z,-83.00
2018-07-11T04:56:47.529Z,-83.00
2018-07-11T04:57:48.298Z,-83.00
2018-07-11T04:58:49.117Z,-83.00
2018-07-11T04:59:48.848Z,-85.00
2018-07-11T05:00:50.647Z,-84.00
2018-07-11T05:01:51.426Z,-84.00
2018-07-11T05:02:52.197Z,-84.00
2018-07-11T05:03:52.976Z,-85.00
2018-07-11T05:04:53.754Z,-84.00
2018-07-11T05:05:54.547Z,-84.00
2018-07-11T05:06:55.320Z,-83.00
2018-07-11T05:07:56.097Z,-84.00
2018-07-11T05:08:56.870Z,-83.00
2018-07-11T05:09:57.640Z,-83.00
2018-07-11T05:10:58.635Z,-82.00
2018-07-11T05:11:58.227Z,-82.00
2018-07-11T05:12:59.984Z,-83.00
2018-07-11T05:14:00.756Z,-84.00
2018-07-11T05:15:01.528Z,-84.00
2018-07-11T05:16:02.328Z,-84.00
2018-07-11T05:17:03.103Z,-83.00
2018-07-11T05:18:03.880Z,-83.00
2018-07-11T05:19:04.651Z,-82.00
2018-07-11T05:20:05.424Z,-82.00
2018-07-11T05:21:06.223Z,-83.00
2018-07-11T05:22:06.991Z,-83.00
2018-07-11T05:23:07.765Z,-82.00
2018-07-11T05:24:08.539Z,-82.00
2018-07-11T05:25:09.312Z,-83.00
2018-07-11T05:26:10.106Z,-83.00
2018-07-11T05:27:10.883Z,-83.00
2018-07-11T05:28:11.657Z,-82.00
2018-07-11T05:29:12.431Z,-83.00
2018-07-11T05:30:13.205Z,-83.00
2018-07-11T05:31:14.005Z,-82.00
2018-07-11T05:32:14.825Z,-83.00
2018-07-11T05:33:14.551Z,-84.00
2018-07-11T05:34:16.318Z,-83.00
2018-07-11T05:35:17.094Z,-82.00
2018-07-11T05:36:17.915Z,-83.00
2018-07-11T05:37:18.672Z,-83.00
2018-07-11T05:38:19.444Z,-83.00
2018-07-11T05:39:20.217Z,-83.00
2018-07-11T05:40:20.989Z,-83.00
2018-07-11T05:41:21.786Z,-82.00
2018-07-11T05:42:22.560Z,-84.00
2018-07-11T05:43:23.330Z,-84.00
2018-07-11T05:44:24.101Z,-82.00
2018-07-11T05:45:24.876Z,-83.00
2018-07-11T05:46:25.679Z,-82.00
2018-07-11T05:47:26.445Z,-83.00
2018-07-11T05:48:27.224Z,-84.00
2018-07-11T05:49:27.995Z,-83.00
2018-07-11T05:50:28.766Z,-84.00
2018-07-11T05:51:29.561Z,-82.00
2018-07-11T05:52:30.336Z,-82.00
2018-07-11T05:53:31.105Z,-82.00
2018-07-11T05:54:31.884Z,-84.00
2018-07-11T05:55:32.660Z,-83.00
2018-07-11T05:56:33.452Z,-82.00
2018-07-11T05:57:34.226Z,-83.00
2018-07-11T05:58:35.001Z,-82.00
2018-07-11T05:59:35.773Z,-83.00
2018-07-11T06:00:36.550Z,-82.00
2018-07-11T06:01:37.349Z,-83.00
2018-07-11T06:02:38.145Z,-82.00
2018-07-11T06:03:38.900Z,-82.00
2018-07-11T06:04:39.673Z,-82.00
2018-07-11T06:05:40.449Z,-83.00
2018-07-11T06:06:41.257Z,-85.00
2018-07-11T06:07:42.027Z,-84.00
2018-07-11T06:08:42.809Z,-83.00
2018-07-11T06:09:43.577Z,-83.00
2018-07-11T06:10:44.349Z,-82.00
2018-07-11T06:11:45.146Z,-84.00
2018-07-11T06:12:45.922Z,-83.00
2018-07-11T06:13:46.757Z,-82.00
2018-07-11T06:14:46.467Z,-83.00
2018-07-11T06:15:48.237Z,-82.00
2018-07-11T06:16:49.039Z,-82.00
2018-07-11T06:17:49.807Z,-81.00
2018-07-11T06:18:50.578Z,-83.00
2018-07-11T06:19:51.353Z,-82.00
2018-07-11T06:20:52.123Z,-84.00
2018-07-11T06:21:53.028Z,-84.00
2018-07-11T06:22:53.091Z,-84.00
2018-07-11T06:23:54.281Z,-83.00
2018-07-11T06:24:53.470Z,-82.00
2018-07-11T06:25:53.656Z,-82.00
2018-07-11T06:29:06.188Z,-81.00
2018-07-11T06:30:06.957Z,-81.00
2018-07-11T06:31:07.729Z,-81.00
2018-07-11T06:32:08.499Z,-84.00
2018-07-11T06:33:09.273Z,-82.00
2018-07-11T06:34:10.071Z,-83.00
2018-07-11T06:35:10.847Z,-80.00
2018-07-11T06:36:11.688Z,-84.00
2018-07-11T06:37:11.394Z,-82.00
2018-07-11T06:38:13.163Z,-82.00
2018-07-11T06:39:14.014Z,-82.00
2018-07-11T06:40:13.733Z,-81.00
2018-07-11T06:41:15.505Z,-80.00
2018-07-11T06:42:16.282Z,-81.00
2018-07-11T06:43:17.049Z,-81.00
2018-07-11T06:44:17.849Z,-81.00
2018-07-11T06:45:18.622Z,-83.00
2018-07-11T06:46:19.406Z,-83.00
2018-07-11T06:47:20.164Z,-83.00
2018-07-11T06:48:20.937Z,-83.00
2018-07-11T06:49:21.734Z,-82.00
2018-07-11T06:50:22.505Z,-83.00
2018-07-11T06:51:23.282Z,-83.00
2018-07-11T06:52:24.052Z,-84.00
2018-07-11T06:53:24.822Z,-83.00
2018-07-11T06:54:25.616Z,-82.00
2018-07-11T06:55:25.389Z,-81.00
2018-07-11T06:56:27.161Z,-82.00
2018-07-11T06:57:27.948Z,-83.00
2018-07-11T06:58:28.704Z,-83.00
2018-07-11T06:59:29.504Z,-81.00
2018-07-11T07:00:30.277Z,-83.00
2018-07-11T07:01:31.049Z,-83.00
2018-07-11T07:02:31.823Z,-84.00
2018-07-11T07:03:32.652Z,-82.00
2018-07-11T07:04:32.399Z,-82.00
2018-07-11T07:05:34.161Z,-85.00
2018-07-11T07:06:34.935Z,-83.00
2018-07-11T07:07:35.706Z,-82.00
2018-07-11T07:08:36.482Z,-84.00
2018-07-11T07:09:37.279Z,-84.00
2018-07-11T07:10:38.052Z,-84.00
2018-07-11T07:11:38.837Z,-84.00
2018-07-11T07:12:39.596Z,-83.00
2018-07-11T07:13:40.364Z,-83.00
2018-07-11T07:14:41.160Z,-83.00
2018-07-11T07:15:41.936Z,-85.00
2018-07-11T07:16:42.706Z,-83.00
2018-07-11T07:17:43.478Z,-83.00
2018-07-11T07:18:44.250Z,-83.00
2018-07-11T07:19:45.049Z,-82.00
2018-07-11T07:20:45.820Z,-82.00
2018-07-11T07:21:46.587Z,-85.00
2018-07-11T07:22:47.361Z,-84.00
2018-07-11T07:23:48.133Z,-82.00
2018-07-11T07:24:48.931Z,-84.00
2018-07-11T07:25:49.706Z,-84.00
2018-07-11T07:26:50.477Z,-84.00
2018-07-11T07:27:51.246Z,-83.00
2018-07-11T07:28:52.021Z,-83.00
2018-07-11T07:29:52.814Z,-83.00
2018-07-11T07:30:53.592Z,-84.00
2018-07-11T07:31:54.362Z,-83.00
2018-07-11T07:32:55.133Z,-85.00
2018-07-11T07:33:55.907Z,-83.00
2018-07-11T07:34:56.730Z,-84.00
2018-07-11T07:35:57.478Z,-83.00
2018-07-11T07:36:58.250Z,-82.00
2018-07-11T07:37:59.028Z,-83.00
2018-07-11T07:38:59.797Z,-82.00
2018-07-11T07:40:00.590Z,-82.00
2018-07-11T07:41:01.369Z,-82.00
2018-07-11T07:42:02.135Z,-82.00
2018-07-11T07:43:02.911Z,-88.00
2018-07-11T07:44:03.684Z,-83.00
2018-07-11T07:45:04.474Z,-85.00
2018-07-11T07:46:05.249Z,-84.00
2018-07-11T07:47:06.092Z,-81.00
2018-07-11T07:48:05.800Z,-86.00
2018-07-11T07:49:07.564Z,-83.00
2018-07-11T07:50:08.360Z,-83.00
2018-07-11T07:51:09.133Z,-82.00
2018-07-11T07:52:09.906Z,-84.00
2018-07-11T07:53:10.684Z,-82.00
2018-07-11T07:54:11.457Z,-83.00
2018-07-11T07:55:12.263Z,-84.00
2018-07-11T07:56:13.033Z,-84.00
2018-07-11T07:57:13.804Z,-85.00
2018-07-11T07:58:14.577Z,-84.00
2018-07-11T07:59:15.353Z,-83.00
2018-07-11T08:00:16.150Z,-84.00
2018-07-11T08:01:16.927Z,-85.00
2018-07-11T08:02:17.695Z,-83.00
2018-07-11T08:03:18.467Z,-83.00
2018-07-11T08:04:19.241Z,-84.00
2018-07-11T08:05:20.040Z,-83.00
2018-07-11T08:06:20.813Z,-86.00
2018-07-11T08:07:21.585Z,-83.00
2018-07-11T08:08:22.358Z,-84.00
2018-07-11T08:09:23.135Z,-85.00
2018-07-11T08:10:23.938Z,-85.00
2018-07-11T08:11:24.712Z,-86.00
2018-07-11T08:12:25.477Z,-86.00
2018-07-11T08:13:26.260Z,-87.00
2018-07-11T08:14:27.025Z,-86.00
2018-07-11T08:15:27.827Z,-86.00
2018-07-11T08:16:28.610Z,-86.00
2018-07-11T08:17:29.627Z,-85.00
2018-07-11T08:18:29.437Z,-85.00
2018-07-11T08:19:30.277Z,-85.00
2018-07-11T08:20:31.050Z,-84.00
2018-07-11T08:21:32.870Z,-84.00
2018-07-11T08:22:32.593Z,-86.00
2018-07-11T08:23:36.172Z,-85.00
2018-07-11T08:24:37.939Z,-84.00
2018-07-11T08:25:36.698Z,-83.00
2018-07-11T08:39:50.515Z,-83.00
2018-07-11T08:40:51.291Z,-84.00
2018-07-11T08:41:52.060Z,-85.00
2018-07-11T08:42:52.853Z,-85.00
2018-07-11T08:43:53.626Z,-86.00
2018-07-11T08:44:54.399Z,-85.00
2018-07-11T08:45:55.172Z,-85.00
2018-07-11T08:46:55.944Z,-85.00
2018-07-11T08:47:56.761Z,-85.00
2018-07-11T08:48:56.513Z,-84.00
2018-07-11T08:49:58.282Z,-83.00
2018-07-11T08:50:59.052Z,-84.00
2018-07-11T08:51:59.826Z,-83.00
2018-07-11T08:53:00.636Z,-86.00
2018-07-11T08:54:01.409Z,-85.00
2018-07-11T08:55:02.267Z,-87.00
2018-07-11T08:56:01.953Z,-86.00
2018-07-11T08:57:03.728Z,-86.00
2018-07-11T08:58:04.521Z,-84.00
2018-07-11T08:59:05.295Z,-84.00
2018-07-11T09:00:06.067Z,-84.00
2018-07-11T09:01:06.841Z,-85.00
2018-07-11T09:02:07.612Z,-87.00
2018-07-11T09:03:08.415Z,-86.00
2018-07-11T09:04:09.184Z,-83.00
2018-07-11T09:05:09.959Z,-86.00
2018-07-11T09:06:10.730Z,-85.00
2018-07-11T09:07:11.511Z,-86.00
2018-07-11T09:08:12.305Z,-86.00
2018-07-11T09:09:13.076Z,-87.00
2018-07-11T09:10:13.848Z,-87.00
2018-07-11T09:11:14.620Z,-87.00
2018-07-11T09:12:15.392Z,-86.00
2018-07-11T09:13:16.195Z,-86.00
2018-07-11T09:14:16.960Z,-86.00
2018-07-11T09:15:17.735Z,-86.00
2018-07-11T09:16:18.515Z,-88.00
2018-07-11T09:17:19.286Z,-86.00
2018-07-11T09:18:20.086Z,-87.00
2018-07-11T09:19:20.859Z,-87.00
2018-07-11T09:20:21.637Z,-88.00
2018-07-11T09:21:22.405Z,-86.00
2018-07-11T09:22:23.183Z,-88.00
2018-07-11T09:23:23.982Z,-86.00
2018-07-11T09:24:24.776Z,-87.00
2018-07-11T09:25:24.529Z,-88.00
2018-07-11T09:26:26.302Z,-85.00
2018-07-11T09:27:27.075Z,-85.00
2018-07-11T09:28:27.871Z,-86.00
2018-07-11T09:29:28.644Z,-85.00
2018-07-11T09:30:29.464Z,-87.00
2018-07-11T09:31:29.191Z,-86.00
2018-07-11T09:32:30.961Z,-85.00
2018-07-11T09:33:31.758Z,-87.00
2018-07-11T09:34:32.534Z,-88.00
2018-07-11T09:35:33.308Z,-87.00
2018-07-11T09:36:34.080Z,-84.00
2018-07-11T09:37:34.885Z,-85.00
2018-07-11T09:38:34.654Z,-87.00
2018-07-11T09:39:36.429Z,-86.00
2018-07-11T09:40:37.199Z,-86.00
2018-07-11T09:41:37.975Z,-87.00
2018-07-11T09:42:38.749Z,-84.00
2018-07-11T09:43:39.545Z,-86.00
2018-07-11T09:44:40.319Z,-87.00
2018-07-11T09:45:41.101Z,-87.00
2018-07-11T09:46:41.865Z,-84.00
2018-07-11T09:47:42.638Z,-84.00
2018-07-11T09:48:43.434Z,-86.00
2018-07-11T09:49:44.208Z,-85.00
2018-07-11T09:50:44.981Z,-86.00
2018-07-11T09:51:45.755Z,-85.00
2018-07-11T09:52:46.531Z,-85.00
2018-07-11T09:53:47.327Z,-86.00
2018-07-11T09:54:48.113Z,-86.00
2018-07-11T09:55:48.880Z,-84.00
2018-07-11T09:56:49.654Z,-85.00
2018-07-11T09:57:50.461Z,-87.00
2018-07-11T09:58:50.223Z,-86.00
2018-07-11T09:59:51.997Z,-84.00
2018-07-11T10:00:52.771Z,-86.00
2018-07-11T10:01:53.543Z,-85.00
2018-07-11T10:02:54.317Z,-85.00
2018-07-11T10:03:55.118Z,-87.00
2018-07-11T10:04:55.891Z,-85.00
2018-07-11T10:05:56.668Z,-87.00
2018-07-11T10:06:57.444Z,-88.00
2018-07-11T10:07:58.216Z,-88.00
2018-07-11T10:08:58.012Z,-85.00
2018-07-11T10:09:59.789Z,-86.00
2018-07-11T10:11:00.560Z,-85.00
2018-07-11T10:12:01.493Z,-86.00
2018-07-11T10:13:01.103Z,-86.00
2018-07-11T10:14:02.900Z,-88.00
2018-07-11T10:15:03.674Z,-87.00
2018-07-11T10:16:04.447Z,-85.00
2018-07-11T10:17:05.222Z,-84.00
2018-07-11T10:18:05.997Z,-85.00
2018-07-11T10:19:06.807Z,-84.00
2018-07-11T10:20:07.576Z,-85.00
2018-07-11T10:21:08.351Z,-86.00
2018-07-11T10:22:09.122Z,-86.00
2018-07-11T10:23:09.896Z,-84.00
2018-07-11T10:24:10.690Z,-83.00
2018-07-11T10:25:11.465Z,-85.00
2018-07-11T10:26:12.237Z,-86.00
2018-07-11T10:27:13.010Z,-85.00
2018-07-11T10:28:13.783Z,-83.00
2018-07-11T10:29:14.587Z,-85.00
2018-07-11T10:30:15.360Z,-84.00
2018-07-11T10:31:16.136Z,-84.00
2018-07-11T10:32:16.925Z,-85.00
2018-07-11T10:33:17.789Z,-86.00
2018-07-11T10:34:45.808Z,-84.00
2018-07-11T10:35:46.580Z,-85.00
2018-07-11T10:36:47.349Z,-86.00
2018-07-11T10:37:48.121Z,-85.00
2018-07-11T10:38:48.904Z,-86.00
2018-07-11T10:39:49.691Z,-85.00
2018-07-11T10:40:50.462Z,-86.00
2018-07-11T10:41:51.234Z,-85.00
2018-07-11T10:42:52.011Z,-87.00
2018-07-11T10:43:52.780Z,-85.00
2018-07-11T10:44:53.620Z,-86.00
2018-07-11T10:45:53.345Z,-84.00
2018-07-11T10:46:55.127Z,-84.00
2018-07-11T10:47:55.891Z,-84.00
2018-07-11T10:48:56.667Z,-87.00
2018-07-11T10:49:57.464Z,-84.00
2018-07-11T10:50:58.236Z,-88.00
2018-07-11T10:51:59.007Z,-84.00
2018-07-11T10:52:59.782Z,-86.00
2018-07-11T10:54:00.559Z,-86.00
2018-07-11T10:55:01.350Z,-88.00
2018-07-11T10:56:02.120Z,-87.00
2018-07-11T10:57:02.960Z,-86.00
2018-07-11T10:58:02.759Z,-86.00
2018-07-11T10:59:03.440Z,-84.00
2018-07-11T11:00:05.241Z,-88.00
2018-07-11T11:01:06.094Z,-86.00
2018-07-11T11:02:05.777Z,-86.00
2018-07-11T11:03:07.553Z,-88.00
2018-07-11T11:04:08.330Z,-86.00
2018-07-11T11:05:09.128Z,-85.00
2018-07-11T11:06:09.899Z,-86.00
2018-07-11T11:07:10.672Z,-86.00
2018-07-11T11:08:11.446Z,-86.00
2018-07-11T11:09:12.219Z,-85.00
2018-07-11T11:10:13.018Z,-86.00
2018-07-11T11:11:13.784Z,-86.00
2018-07-11T11:12:14.560Z,-86.00
2018-07-11T11:13:14.329Z,-89.00
2018-07-11T11:14:16.104Z,-86.00
2018-07-11T11:15:16.898Z,-86.00
2018-07-11T11:16:17.675Z,-86.00
2018-07-11T11:17:18.444Z,-86.00
2018-07-11T11:18:19.217Z,-86.00
2018-07-11T11:19:19.985Z,-86.00
2018-07-11T11:20:20.781Z,-87.00
2018-07-11T11:21:21.558Z,-86.00
2018-07-11T11:22:22.328Z,-85.00
2018-07-11T11:23:23.108Z,-86.00
2018-07-11T11:24:23.884Z,-85.00
2018-07-11T11:25:24.681Z,-86.00
2018-07-11T11:26:25.458Z,-88.00
2018-07-11T11:27:26.236Z,-85.00
2018-07-11T11:28:27.005Z,-85.00
2018-07-11T11:29:27.775Z,-86.00
2018-07-11T11:30:28.573Z,-87.00
2018-07-11T11:31:29.347Z,-87.00
2018-07-11T11:32:30.120Z,-86.00
2018-07-11T11:33:30.896Z,-86.00
2018-07-11T11:34:31.665Z,-87.00
2018-07-11T11:35:32.474Z,-86.00
2018-07-11T11:36:33.244Z,-86.00
2018-07-11T11:37:34.017Z,-86.00
2018-07-11T11:38:34.784Z,-88.00
2018-07-11T11:39:35.558Z,-88.00
2018-07-11T11:40:36.354Z,-87.00
2018-07-11T11:41:37.161Z,-86.00
2018-07-11T11:42:37.066Z,-88.00
2018-07-11T11:43:37.673Z,-88.00
2018-07-11T11:44:39.445Z,-88.00
2018-07-11T11:45:40.240Z,-86.00
2018-07-11T11:46:41.018Z,-88.00
2018-07-11T11:47:41.789Z,-89.00
2018-07-11T11:48:42.560Z,-86.00
2018-07-11T11:49:43.337Z,-87.00
2018-07-11T11:50:44.134Z,-86.00
2018-07-11T11:51:44.906Z,-85.00
2018-07-11T11:52:45.679Z,-86.00
2018-07-11T11:53:46.455Z,-86.00
2018-07-11T11:54:47.234Z,-87.00
2018-07-11T11:55:48.031Z,-85.00
2018-07-11T11:56:48.800Z,-86.00
2018-07-11T11:57:49.576Z,-87.00
2018-07-11T11:58:50.349Z,-86.00
2018-07-11T11:59:51.122Z,-86.00
2018-07-11T12:00:51.918Z,-86.00
2018-07-11T12:01:52.692Z,-87.00
2018-07-11T12:02:53.466Z,-87.00
2018-07-11T12:03:54.242Z,-86.00
2018-07-11T12:04:55.014Z,-87.00
2018-07-11T12:05:55.809Z,-87.00
2018-07-11T12:06:55.584Z,-86.00
2018-07-11T12:07:57.357Z,-84.00
2018-07-11T12:08:58.131Z,-86.00
2018-07-11T12:09:58.908Z,-86.00
2018-07-11T12:10:59.704Z,-84.00
2018-07-11T12:12:00.474Z,-86.00
2018-07-11T12:13:01.251Z,-85.00
2018-07-11T12:14:02.023Z,-86.00
2018-07-11T12:15:02.799Z,-86.00
2018-07-11T12:16:03.595Z,-85.00
2018-07-11T12:17:04.367Z,-84.00
2018-07-11T12:18:05.146Z,-85.00
2018-07-11T12:19:05.925Z,-86.00
2018-07-11T12:20:06.692Z,-85.00
2018-07-11T12:21:07.526Z,-87.00
2018-07-11T12:22:07.255Z,-86.00
2018-07-11T12:23:09.029Z,-88.00
2018-07-11T12:24:09.806Z,-86.00
2018-07-11T12:25:10.582Z,-88.00
2018-07-11T12:26:11.378Z,-87.00
2018-07-11T12:27:12.149Z,-88.00
2018-07-11T12:28:12.927Z,-87.00
2018-07-11T12:29:14.095Z,-86.00
2018-07-11T12:30:14.297Z,-87.00
2018-07-11T12:31:13.511Z,-88.00
2018-07-11T12:32:13.721Z,-87.00
2018-07-11T12:34:29.362Z,-86.00
2018-07-11T12:35:30.133Z,-86.00
2018-07-11T12:36:30.928Z,-85.00
2018-07-11T12:37:31.701Z,-87.00
2018-07-11T12:38:32.475Z,-85.00
2018-07-11T12:39:33.247Z,-89.00
2018-07-11T12:40:34.017Z,-86.00
2018-07-11T12:41:34.812Z,-85.00
2018-07-11T12:42:35.588Z,-85.00
2018-07-11T12:43:36.392Z,-85.00
2018-07-11T12:44:36.132Z,-86.00
2018-07-11T12:45:37.904Z,-87.00
2018-07-11T12:46:38.700Z,-86.00
2018-07-11T12:47:39.472Z,-86.00
2018-07-11T12:48:40.246Z,-86.00
2018-07-11T12:49:41.016Z,-87.00
2018-07-11T12:50:41.797Z,-86.00
2018-07-11T12:51:42.584Z,-85.00
2018-07-11T12:52:43.357Z,-87.00
2018-07-11T12:53:44.130Z,-85.00
2018-07-11T12:54:44.900Z,-86.00
2018-07-11T12:55:45.676Z,-85.00
2018-07-11T12:56:46.477Z,-87.00
2018-07-11T12:57:47.247Z,-87.00
2018-07-11T12:58:48.023Z,-86.00
2018-07-11T12:59:48.794Z,-86.00
2018-07-11T13:00:49.574Z,-86.00
2018-07-11T13:01:50.363Z,-85.00
2018-07-11T13:02:51.141Z,-86.00
2018-07-11T13:03:52.067Z,-86.00
2018-07-11T13:04:52.880Z,-89.00
2018-07-11T13:05:53.652Z,-88.00
2018-07-11T13:06:54.449Z,-88.00
2018-07-11T13:07:55.224Z,-88.00
2018-07-11T13:08:55.993Z,-89.00
2018-07-11T13:09:56.769Z,-86.00
2018-07-11T13:10:57.552Z,-89.00
2018-07-11T13:11:58.351Z,-87.00
2018-07-11T13:12:59.121Z,-87.00
2018-07-11T13:13:59.897Z,-88.00
2018-07-11T13:15:00.666Z,-86.00
2018-07-11T13:16:01.496Z,-87.00
2018-07-11T13:17:01.237Z,-87.00
2018-07-11T13:18:03.010Z,-87.00